Time;durP1;ratioP1;P1;durP2;ratioP2;P2;SDS_P1;SDS_P2;PMS_P1;PMS_P2;Temp;Humidity;BMP_temperature;BMP_pressure;BME280_temperature;BME280_humidity;BME280_pressure;Samples;Min_cycle;Max_cycle;Signal;HPM_P1;HPM_P2
2023/11/23 00:01:06;;;;;;;33.22;18.38;;;7.50;99.90;;;;;;6154774;23;20444;-81
2023/11/23 00:03:33;;;;;;;38.33;19.58;;;7.50;99.90;;;;;;6106196;23;20083;-82
2023/11/23 00:06:01;;;;;;;33.33;17.25;;;7.50;99.90;;;;;;6154415;23;20460;-82
2023/11/23 00:08:29;;;;;;;30.48;16.10;;;7.40;99.90;;;;;;6130345;23;20025;-81
2023/11/23 00:10:57;;;;;;;32.40;14.95;;;7.40;99.90;;;;;;6154983;23;20020;-83
2023/11/23 00:13:26;;;;;;;27.13;15.60;;;7.40;99.90;;;;;;6154000;23;20040;-82
2023/11/23 00:15:53;;;;;;;31.05;16.80;;;7.40;99.90;;;;;;6129921;23;20065;-82
2023/11/23 00:18:20;;;;;;;27.08;14.75;;;7.40;99.90;;;;;;6130058;23;20010;-81
2023/11/23 00:20:47;;;;;;;37.92;18.95;;;7.40;99.90;;;;;;6154323;23;20021;-81
2023/11/23 00:23:15;;;;;;;32.60;17.23;;;7.40;99.90;;;;;;6106066;23;20104;-82
2023/11/23 00:25:42;;;;;;;36.45;18.05;;;7.40;99.90;;;;;;6129973;23;20025;-82
2023/11/23 00:28:09;;;;;;;35.30;17.15;;;7.40;99.90;;;;;;6154556;23;20060;-82
2023/11/23 00:30:36;;;;;;;31.77;17.33;;;7.50;99.90;;;;;;6154549;23;20021;-81
2023/11/23 00:33:03;;;;;;;36.30;19.25;;;7.50;99.90;;;;;;6154357;23;20026;-82
2023/11/23 00:35:31;;;;;;;37.20;19.98;;;7.50;99.90;;;;;;6129921;23;20321;-82
2023/11/23 00:37:58;;;;;;;32.55;17.88;;;7.50;99.90;;;;;;6105639;23;20013;-82
2023/11/23 00:40:26;;;;;;;31.83;17.38;;;7.50;99.90;;;;;;6106022;23;20032;-82
2023/11/23 00:42:53;;;;;;;31.42;16.55;;;7.60;99.90;;;;;;6129996;23;20026;-82
2023/11/23 00:45:20;;;;;;;37.25;18.60;;;7.60;99.90;;;;;;6129906;23;20029;-82
2023/11/23 00:47:55;;;;;;;32.97;18.30;;;7.60;99.90;;;;;;6179155;23;20033;-82
2023/11/23 00:50:22;;;;;;;33.10;16.38;;;7.60;99.90;;;;;;6154282;23;20018;-82
2023/11/23 00:52:50;;;;;;;33.95;18.00;;;7.60;99.90;;;;;;6154934;23;20384;-82
2023/11/23 00:55:17;;;;;;;34.17;17.88;;;7.70;99.90;;;;;;6130226;23;20053;-82
2023/11/23 00:57:46;;;;;;;36.95;18.10;;;7.70;99.90;;;;;;6131393;23;20021;-82
2023/11/23 01:00:16;;;;;;;26.42;14.80;;;7.70;99.90;;;;;;6133301;23;20026;-81
2023/11/23 01:02:46;;;;;;;25.98;14.05;;;7.70;99.90;;;;;;6117524;23;20535;-81
2023/11/23 01:05:18;;;;;;;31.67;16.83;;;7.70;99.90;;;;;;6155745;23;20025;-83
2023/11/23 01:07:46;;;;;;;30.73;17.38;;;7.70;99.90;;;;;;6180854;23;20025;-83
2023/11/23 01:10:13;;;;;;;35.15;17.25;;;7.80;99.90;;;;;;6131148;23;20053;-82
2023/11/23 01:12:40;;;;;;;32.65;18.20;;;7.80;99.90;;;;;;6106334;23;20026;-83
2023/11/23 01:15:12;;;;;;;35.92;20.55;;;7.80;99.90;;;;;;6131525;23;20021;-83
2023/11/23 01:17:39;;;;;;;37.08;19.42;;;7.80;99.90;;;;;;6131198;23;20017;-83
2023/11/23 01:20:07;;;;;;;37.40;21.80;;;7.90;99.90;;;;;;6130482;23;20356;-83
2023/11/23 01:22:36;;;;;;;34.53;19.05;;;7.90;99.90;;;;;;6130811;23;20072;-82
2023/11/23 01:25:08;;;;;;;37.92;19.42;;;7.90;99.90;;;;;;6130506;23;20406;-83
2023/11/23 01:27:37;;;;;;;37.17;19.15;;;8.00;99.90;;;;;;6130109;23;20024;-82
2023/11/23 01:30:05;;;;;;;37.70;20.60;;;8.00;99.90;;;;;;6130236;23;20029;-83
2023/11/23 01:32:33;;;;;;;40.05;20.92;;;8.00;99.90;;;;;;6130076;23;20027;-83
2023/11/23 01:35:03;;;;;;;32.60;18.73;;;8.00;99.90;;;;;;6130409;23;20352;-83
2023/11/23 01:37:35;;;;;;;34.33;19.67;;;8.00;99.90;;;;;;6130185;23;20018;-83
2023/11/23 01:40:06;;;;;;;;;;;8.10;99.90;;;;;;6083134;23;20026;-82
2023/11/23 01:42:34;;;;;;;33.83;19.95;;;8.10;99.90;;;;;;6151143;23;19939;-83
2023/11/23 01:45:01;;;;;;;37.72;21.08;;;8.10;99.90;;;;;;6137205;23;20017;-83
2023/11/23 01:47:39;;;;;;;34.25;19.52;;;8.10;99.90;;;;;;6161931;23;20020;-83
2023/11/23 01:50:10;;;;;;;37.28;22.20;;;8.20;99.90;;;;;;6186740;23;20021;-84
2023/11/23 01:52:41;;;;;;;36.72;20.23;;;8.20;99.90;;;;;;6186226;23;20017;-83
2023/11/23 01:55:09;;;;;;;38.85;21.15;;;8.20;99.90;;;;;;6186508;23;20084;-84
2023/11/23 01:57:40;;;;;;;43.15;21.95;;;8.30;99.90;;;;;;6186306;23;20084;-83
2023/11/23 02:00:08;;;;;;;39.80;22.40;;;8.30;99.90;;;;;;6186337;23;20028;-83
2023/11/23 02:02:40;;;;;;;41.90;22.60;;;8.30;99.90;;;;;;6187339;23;20040;-83
2023/11/23 02:05:11;;;;;;;47.15;22.92;;;8.30;99.90;;;;;;6186240;23;20033;-83
2023/11/23 02:07:38;;;;;;;35.40;20.17;;;8.30;99.90;;;;;;6186007;23;20029;-83
2023/11/23 02:10:07;;;;;;;36.25;20.48;;;8.40;99.90;;;;;;6161491;23;20536;-83
2023/11/23 02:12:35;;;;;;;34.85;20.52;;;8.40;99.90;;;;;;6136944;23;20099;-83
2023/11/23 02:15:03;;;;;;;33.55;20.58;;;8.40;99.90;;;;;;6185981;23;20028;-83
2023/11/23 02:17:30;;;;;;;31.90;19.25;;;8.40;99.90;;;;;;6185663;23;20079;-83
2023/11/23 02:19:58;;;;;;;30.98;19.40;;;8.50;99.90;;;;;;6162015;23;20021;-83
2023/11/23 02:22:29;;;;;;;32.33;20.00;;;8.50;99.90;;;;;;6161339;23;20518;-83
2023/11/23 02:25:00;;;;;;;35.70;20.35;;;8.50;99.90;;;;;;6161699;23;20443;-83
2023/11/23 02:27:29;;;;;;;31.85;19.00;;;8.60;99.90;;;;;;6185497;23;20029;-83
2023/11/23 02:30:10;;;;;;;29.85;19.10;;;8.60;99.90;;;;;;6185858;23;20031;-83
2023/11/23 02:32:46;;;;;;;30.55;18.65;;;8.60;99.90;;;;;;6186588;23;20088;-83
2023/11/23 02:35:19;;;;;;;33.88;19.77;;;8.60;99.90;;;;;;6161519;23;20017;-84
2023/11/23 02:37:50;;;;;;;39.20;21.02;;;8.70;99.90;;;;;;6161531;23;20490;-83
2023/11/23 02:40:17;;;;;;;33.53;20.42;;;8.70;99.90;;;;;;6136426;23;20072;-83
2023/11/23 02:42:45;;;;;;;35.50;22.38;;;8.70;99.90;;;;;;6185675;23;20029;-83
2023/11/23 02:45:13;;;;;;;38.42;21.83;;;8.70;99.90;;;;;;6210861;23;20522;-83
2023/11/23 02:47:42;;;;;;;33.15;21.65;;;8.80;99.90;;;;;;6186108;23;20059;-83
2023/11/23 02:50:11;;;;;;;34.53;21.15;;;8.80;99.90;;;;;;6160960;23;20416;-84
2023/11/23 02:52:41;;;;;;;39.70;23.27;;;8.80;99.90;;;;;;6185819;23;20072;-83
2023/11/23 02:55:10;;;;;;;41.95;22.58;;;8.90;99.90;;;;;;6185679;23;20021;-83
2023/11/23 02:57:42;;;;;;;37.33;21.13;;;8.90;99.90;;;;;;6185647;23;20017;-83
2023/11/23 03:00:11;;;;;;;34.20;20.08;;;8.90;99.90;;;;;;6160980;23;20024;-83
2023/11/23 03:02:39;;;;;;;35.78;21.50;;;8.90;99.90;;;;;;6185445;23;20084;-83
2023/11/23 03:05:08;;;;;;;28.08;18.48;;;8.90;99.90;;;;;;6210326;23;20505;-83
2023/11/23 03:07:35;;;;;;;30.02;18.25;;;8.90;99.90;;;;;;6185857;23;20025;-83
2023/11/23 03:10:03;;;;;;;34.08;18.00;;;9.00;99.90;;;;;;6185496;23;20075;-83
2023/11/23 03:12:31;;;;;;;29.63;18.33;;;9.00;99.90;;;;;;6185337;23;20021;-83
2023/11/23 03:15:02;;;;;;;34.83;20.75;;;9.00;99.90;;;;;;6210571;23;20021;-83
2023/11/23 03:17:33;;;;;;;31.25;18.75;;;9.00;99.90;;;;;;6185380;23;20071;-83
2023/11/23 03:20:03;;;;;;;32.10;19.23;;;9.00;99.90;;;;;;6185371;23;20067;-83
2023/11/23 03:22:31;;;;;;;26.15;16.25;;;9.10;99.90;;;;;;6160540;23;20127;-83
2023/11/23 03:24:58;;;;;;;24.65;15.23;;;9.10;99.90;;;;;;6136187;23;20017;-83
2023/11/23 03:27:25;;;;;;;26.10;15.05;;;9.10;99.90;;;;;;6185326;23;20095;-84
2023/11/23 03:29:52;;;;;;;24.58;14.75;;;9.10;99.90;;;;;;6160742;23;20021;-83
2023/11/23 03:32:21;;;;;;;28.02;14.73;;;9.20;99.90;;;;;;6185012;23;20017;-83
2023/11/23 03:34:49;;;;;;;31.80;17.17;;;9.20;99.90;;;;;;6185769;23;20432;-82
2023/11/23 03:37:16;;;;;;;25.88;15.95;;;9.20;99.90;;;;;;6185321;23;20024;-83
2023/11/23 03:39:44;;;;;;;26.67;17.10;;;9.20;99.90;;;;;;6184899;23;20436;-83
2023/11/23 03:42:11;;;;;;;27.60;17.90;;;9.30;99.90;;;;;;6160506;23;20029;-83
2023/11/23 03:44:40;;;;;;;32.97;19.17;;;9.30;99.90;;;;;;6160615;23;20351;-82
2023/11/23 03:47:11;;;;;;;25.80;17.08;;;9.30;99.90;;;;;;6136094;23;20247;-83
2023/11/23 03:49:39;;;;;;;30.30;18.67;;;9.30;99.90;;;;;;6160397;23;20071;-83
2023/11/23 03:52:09;;;;;;;31.55;17.90;;;9.40;99.90;;;;;;6160666;23;20017;-83
2023/11/23 03:54:37;;;;;;;27.27;18.73;;;9.40;99.90;;;;;;6184967;23;20044;-83
2023/11/23 03:57:05;;;;;;;34.17;20.83;;;9.40;99.90;;;;;;6185498;23;20017;-83
2023/11/23 03:59:32;;;;;;;30.77;18.90;;;9.40;99.90;;;;;;6160208;23;20021;-83
2023/11/23 04:02:01;;;;;;;34.97;19.80;;;9.40;99.90;;;;;;6185416;23;20021;-83
2023/11/23 04:04:30;;;;;;;29.23;18.92;;;9.50;99.90;;;;;;6160589;23;20091;-83
2023/11/23 04:06:58;;;;;;;31.15;18.80;;;9.50;99.90;;;;;;6209365;23;20021;-83
2023/11/23 04:09:25;;;;;;;29.98;18.17;;;9.50;99.90;;;;;;6184947;23;20108;-83
2023/11/23 04:11:53;;;;;;;28.30;18.17;;;9.50;99.90;;;;;;6184750;23;20021;-83
2023/11/23 04:14:20;;;;;;;33.38;20.60;;;9.50;99.90;;;;;;6184797;23;20025;-83
2023/11/23 04:16:47;;;;;;;31.30;19.60;;;9.50;99.90;;;;;;6185130;23;20021;-83
2023/11/23 04:19:17;;;;;;;34.05;20.50;;;9.50;99.90;;;;;;6184970;23;20013;-83
2023/11/23 04:21:45;;;;;;;32.17;18.77;;;9.50;99.90;;;;;;6185036;23;20370;-83
2023/11/23 04:24:12;;;;;;;26.85;17.10;;;9.50;99.90;;;;;;6185069;23;20072;-83
2023/11/23 04:26:41;;;;;;;29.52;16.67;;;9.50;99.90;;;;;;6184922;23;20055;-83
2023/11/23 04:29:13;;;;;;;29.48;18.25;;;9.60;99.90;;;;;;6184579;23;20029;-83
2023/11/23 04:31:53;;;;;;;31.55;18.00;;;9.60;99.90;;;;;;6160022;23;20383;-83
2023/11/23 04:34:23;;;;;;;34.45;20.23;;;9.60;99.90;;;;;;6184920;23;20017;-83
2023/11/23 04:36:50;;;;;;;33.03;18.15;;;9.60;99.90;;;;;;6184588;23;20080;-83
2023/11/23 04:39:18;;;;;;;36.20;19.80;;;9.70;99.90;;;;;;6184799;23;20025;-83
2023/11/23 04:41:45;;;;;;;34.65;19.58;;;9.70;99.90;;;;;;6209672;23;20052;-83
2023/11/23 04:44:12;;;;;;;30.92;19.30;;;9.70;99.90;;;;;;6184487;23;20029;-82
2023/11/23 04:46:41;;;;;;;29.48;18.40;;;9.70;99.90;;;;;;6164176;23;20028;-83
2023/11/23 04:49:09;;;;;;;29.30;15.95;;;9.70;99.90;;;;;;6203498;23;20031;-83
2023/11/23 04:51:37;;;;;;;25.75;15.38;;;9.70;99.90;;;;;;6159240;23;20037;-82
2023/11/23 04:54:04;;;;;;;25.27;15.20;;;9.70;99.90;;;;;;6187985;23;20020;-83
2023/11/23 04:56:32;;;;;;;26.48;15.48;;;9.70;99.90;;;;;;6185797;23;20072;-83
2023/11/23 04:58:59;;;;;;;26.38;14.15;;;9.70;99.90;;;;;;6185253;23;20017;-83
2023/11/23 05:01:26;;;;;;;23.65;15.50;;;9.80;99.90;;;;;;6185286;23;20025;-83
2023/11/23 05:03:54;;;;;;;24.02;14.68;;;9.80;99.90;;;;;;6184957;23;20031;-83
2023/11/23 05:06:22;;;;;;;25.83;15.40;;;9.80;99.90;;;;;;6185134;23;20025;-84
2023/11/23 05:08:50;;;;;;;25.70;15.45;;;9.80;99.90;;;;;;6160505;23;20021;-84
2023/11/23 05:11:17;;;;;;;24.02;14.63;;;9.80;99.90;;;;;;6184847;23;20029;-84
2023/11/23 05:13:46;;;;;;;24.90;14.38;;;9.80;99.90;;;;;;6136385;23;20028;-84
2023/11/23 05:16:13;;;;;;;25.15;14.45;;;9.90;99.90;;;;;;6185076;23;20024;-84
2023/11/23 05:18:42;;;;;;;25.45;14.82;;;9.90;99.90;;;;;;6184930;23;20017;-84
2023/11/23 05:21:10;;;;;;;24.80;13.05;;;9.90;99.90;;;;;;6184348;23;20052;-84
2023/11/23 05:23:40;;;;;;;22.55;12.95;;;9.90;99.90;;;;;;6185216;23;20021;-84
2023/11/23 05:26:11;;;;;;;25.33;13.40;;;9.90;99.90;;;;;;6184847;23;20044;-84
2023/11/23 05:28:40;;;;;;;27.02;14.40;;;9.90;99.90;;;;;;6135384;23;20017;-84
2023/11/23 05:31:09;;;;;;;25.77;14.35;;;9.90;99.90;;;;;;6160412;23;20044;-84
2023/11/23 05:33:37;;;;;;;25.00;13.52;;;9.90;99.90;;;;;;6185081;23;20044;-84
2023/11/23 05:36:15;;;;;;;26.00;14.27;;;9.90;99.90;;;;;;6160164;23;20390;-84
2023/11/23 05:38:44;;;;;;;30.45;14.15;;;9.90;99.90;;;;;;6135621;23;20264;-84
2023/11/23 05:41:13;;;;;;;22.02;12.68;;;9.90;99.90;;;;;;6159707;23;20104;-84
2023/11/23 05:43:41;;;;;;;21.17;12.40;;;9.90;99.90;;;;;;6160223;23;20025;-84
2023/11/23 05:46:09;;;;;;;24.30;12.93;;;9.90;99.90;;;;;;6184726;23;20021;-83
2023/11/23 05:48:40;;;;;;;20.55;12.20;;;9.90;99.90;;;;;;6160067;23;20122;-84
2023/11/23 05:51:07;;;;;;;23.13;11.73;;;9.90;99.90;;;;;;6185221;23;20017;-84
2023/11/23 05:53:42;;;;;;;22.52;12.00;;;9.90;99.90;;;;;;6160141;23;20017;-84
2023/11/23 05:56:09;;;;;;;21.35;12.55;;;9.90;99.90;;;;;;6184584;23;20051;-84
2023/11/23 05:58:36;;;;;;;20.55;11.40;;;9.90;99.90;;;;;;6135324;23;20021;-84
2023/11/23 06:01:04;;;;;;;20.77;12.52;;;9.90;99.90;;;;;;6185310;23;20071;-84
2023/11/23 06:03:40;;;;;;;21.40;11.38;;;9.80;99.90;;;;;;6185093;23;20150;-84
2023/11/23 06:06:21;;;;;;;19.30;11.30;;;9.90;99.90;;;;;;6184972;23;20020;-84
2023/11/23 06:08:50;;;;;;;24.55;12.65;;;9.90;99.90;;;;;;6185326;23;20025;-84
2023/11/23 06:11:18;;;;;;;21.60;11.65;;;9.90;99.90;;;;;;6185261;23;20099;-84
2023/11/23 06:13:50;;;;;;;24.95;13.32;;;9.80;99.90;;;;;;6160179;23;20025;-84
2023/11/23 06:16:21;;;;;;;20.20;11.57;;;9.90;99.90;;;;;;6161041;23;20025;-84
2023/11/23 06:18:50;;;;;;;24.85;13.20;;;9.90;99.90;;;;;;6209336;23;20024;-84
2023/11/23 06:21:21;;;;;;;24.38;12.57;;;9.90;99.90;;;;;;6160557;23;20027;-84
2023/11/23 06:23:49;;;;;;;25.45;14.75;;;9.90;99.90;;;;;;6161039;23;20112;-84
2023/11/23 06:26:20;;;;;;;24.70;15.23;;;9.90;99.90;;;;;;6159878;23;20075;-84
2023/11/23 06:28:51;;;;;;;25.80;15.02;;;9.90;99.90;;;;;;6160106;23;20021;-84
2023/11/23 06:31:21;;;;;;;28.35;15.48;;;9.90;99.90;;;;;;6185858;23;20146;-84
2023/11/23 06:33:51;;;;;;;24.15;13.43;;;10.00;99.90;;;;;;6186345;23;20021;-84
2023/11/23 06:36:18;;;;;;;28.55;16.00;;;10.00;99.90;;;;;;6161614;23;20025;-84
2023/11/23 06:38:45;;;;;;;26.60;14.60;;;10.00;99.90;;;;;;6161698;23;20021;-83
2023/11/23 06:41:22;;;;;;;29.23;15.27;;;10.00;99.90;;;;;;6161240;23;20045;-83
2023/11/23 06:43:51;;;;;;;31.90;17.70;;;10.00;99.90;;;;;;6186188;23;20029;-84
2023/11/23 06:46:20;;;;;;;32.33;18.33;;;10.00;99.90;;;;;;6186676;23;20029;-84
2023/11/23 06:48:47;;;;;;;31.05;17.20;;;10.00;99.90;;;;;;6161820;23;20447;-84
2023/11/23 06:51:17;;;;;;;29.48;17.02;;;10.10;99.90;;;;;;6186571;23;20021;-84
2023/11/23 06:53:46;;;;;;;26.17;15.18;;;10.10;99.90;;;;;;6211003;23;20023;-84
2023/11/23 06:56:17;;;;;;;;;;;10.10;99.90;;;;;;6161785;23;20013;-84
2023/11/23 06:58:49;;;;;;;26.42;14.82;;;10.10;99.90;;;;;;6162050;23;19922;-84
2023/11/23 07:01:16;;;;;;;27.88;16.08;;;10.10;99.90;;;;;;6160955;23;20025;-84
2023/11/23 07:03:48;;;;;;;27.57;17.03;;;10.10;99.90;;;;;;6161858;23;20076;-85
2023/11/23 07:06:16;;;;;;;28.35;16.52;;;10.10;99.90;;;;;;6185634;23;20021;-84
2023/11/23 07:08:43;;;;;;;27.70;15.50;;;10.10;99.90;;;;;;6210916;23;20060;-84
2023/11/23 07:11:18;;;;;;;27.70;15.15;;;10.10;99.90;;;;;;6161235;23;20029;-84
2023/11/23 07:13:47;;;;;;;27.08;15.25;;;10.10;99.90;;;;;;6185730;23;20013;-84
2023/11/23 07:16:14;;;;;;;21.88;13.68;;;10.10;99.90;;;;;;6161250;23;20017;-84
2023/11/23 07:18:44;;;;;;;32.75;15.43;;;10.20;99.90;;;;;;6185934;23;20021;-84
2023/11/23 07:21:14;;;;;;;23.13;14.02;;;10.20;99.90;;;;;;6186036;23;20464;-84
2023/11/23 07:23:43;;;;;;;21.80;12.93;;;10.20;99.90;;;;;;6161617;23;20021;-84
2023/11/23 07:26:15;;;;;;;24.40;14.90;;;10.20;99.90;;;;;;6186511;23;20028;-84
2023/11/23 07:28:42;;;;;;;24.83;14.30;;;10.20;99.90;;;;;;6185700;23;20023;-84
2023/11/23 07:31:10;;;;;;;28.33;14.07;;;10.20;99.90;;;;;;6161082;23;20029;-84
2023/11/23 07:33:38;;;;;;;24.88;13.43;;;10.20;99.90;;;;;;6161190;23;20021;-84
2023/11/23 07:36:07;;;;;;;22.25;13.60;;;10.20;99.90;;;;;;6185937;23;20052;-84
2023/11/23 07:38:34;;;;;;;22.75;12.57;;;10.20;99.90;;;;;;6160763;23;20013;-84
2023/11/23 07:41:06;;;;;;;25.63;14.43;;;10.20;99.90;;;;;;6184934;23;20017;-85
2023/11/23 07:43:34;;;;;;;25.67;14.48;;;10.20;99.90;;;;;;6185464;23;20043;-85
2023/11/23 07:46:04;;;;;;;22.05;12.52;;;10.30;99.90;;;;;;6210633;23;20025;-85
2023/11/23 07:48:32;;;;;;;21.27;12.77;;;10.30;99.90;;;;;;6185770;23;20100;-85
2023/11/23 07:51:02;;;;;;;24.02;13.45;;;10.30;99.90;;;;;;6210401;23;20079;-84
2023/11/23 07:53:34;;;;;;;19.60;10.85;;;10.30;99.90;;;;;;6185574;23;20108;-85
2023/11/23 07:56:01;;;;;;;22.40;12.10;;;10.30;99.90;;;;;;6160615;23;20109;-84
2023/11/23 07:58:28;;;;;;;18.33;10.00;;;10.30;99.90;;;;;;6136074;23;20099;-82
2023/11/23 08:00:57;;;;;;;21.10;12.13;;;10.30;99.90;;;;;;6160139;23;20071;-81
2023/11/23 08:03:24;;;;;;;20.67;12.43;;;10.30;99.90;;;;;;6160153;23;20440;-81
2023/11/23 08:05:53;;;;;;;20.73;12.50;;;10.30;99.90;;;;;;6161104;23;20025;-84
2023/11/23 08:08:21;;;;;;;16.30;10.27;;;10.40;99.90;;;;;;6185567;23;20020;-84
2023/11/23 08:10:50;;;;;;;17.25;10.65;;;10.40;99.90;;;;;;6185385;23;20025;-85
2023/11/23 08:13:21;;;;;;;19.58;11.77;;;10.40;99.90;;;;;;6185026;23;20048;-84
2023/11/23 08:15:51;;;;;;;22.83;12.40;;;10.40;99.90;;;;;;6185457;23;20043;-84
2023/11/23 08:18:21;;;;;;;19.20;11.70;;;10.40;99.90;;;;;;6184708;23;20025;-81
2023/11/23 08:20:57;;;;;;;19.17;11.25;;;10.40;99.90;;;;;;6139155;23;20075;-80
2023/11/23 08:23:25;;;;;;;22.35;12.57;;;10.40;99.90;;;;;;6184736;23;20451;-81
2023/11/23 08:25:53;;;;;;;20.45;13.00;;;10.40;99.90;;;;;;6184509;23;20076;-81
2023/11/23 08:28:21;;;;;;;21.38;12.10;;;10.40;99.90;;;;;;6184517;23;20029;-83
2023/11/23 08:30:49;;;;;;;19.27;11.73;;;10.50;99.90;;;;;;6184952;23;20029;-82
2023/11/23 08:33:16;;;;;;;26.00;12.75;;;10.40;99.90;;;;;;6165439;23;20059;-82
2023/11/23 08:35:45;;;;;;;20.75;12.88;;;10.50;99.90;;;;;;6165240;23;20013;-82
2023/11/23 08:38:14;;;;;;;19.25;12.10;;;10.50;99.90;;;;;;6190059;23;20024;-82
2023/11/23 08:40:41;;;;;;;22.35;11.85;;;10.50;99.90;;;;;;6227869;23;20017;-82
2023/11/23 08:43:11;;;;;;;19.65;12.38;;;10.50;99.90;;;;;;6159819;23;20056;-82
2023/11/23 08:45:39;;;;;;;20.13;12.57;;;10.50;99.90;;;;;;6200755;23;20025;-81
2023/11/23 08:48:06;;;;;;;23.30;12.90;;;10.50;99.90;;;;;;6186032;23;20021;-81
2023/11/23 08:50:34;;;;;;;23.55;11.98;;;10.50;99.90;;;;;;6160230;23;20029;-83
2023/11/23 08:53:01;;;;;;;19.15;11.30;;;10.60;99.90;;;;;;6184400;23;20013;-82
2023/11/23 08:55:28;;;;;;;23.45;12.20;;;10.60;99.90;;;;;;6184718;23;20079;-82
2023/11/23 08:57:55;;;;;;;18.80;11.10;;;10.60;99.90;;;;;;6159395;23;20025;-82
2023/11/23 09:00:24;;;;;;;17.17;11.43;;;10.60;99.90;;;;;;6184095;23;20017;-82
2023/11/23 09:02:53;;;;;;;20.63;11.68;;;10.60;99.90;;;;;;6159654;23;20025;-83
2023/11/23 09:05:22;;;;;;;19.33;12.13;;;10.60;99.90;;;;;;6184287;23;20048;-82
2023/11/23 09:07:50;;;;;;;16.33;11.32;;;10.70;99.90;;;;;;6208645;23;20107;-82
2023/11/23 09:10:17;;;;;;;18.38;11.70;;;10.70;99.90;;;;;;6159340;23;20035;-82
2023/11/23 09:12:44;;;;;;;22.23;12.05;;;10.70;99.90;;;;;;6184381;23;20021;-84
2023/11/23 09:15:13;;;;;;;18.10;11.45;;;10.70;99.90;;;;;;6160079;23;20096;-84
2023/11/23 09:17:40;;;;;;;20.17;12.15;;;10.70;99.90;;;;;;6185250;23;20474;-84
2023/11/23 09:20:08;;;;;;;21.60;10.98;;;10.80;99.90;;;;;;6159724;23;20317;-81
2023/11/23 09:22:36;;;;;;;16.00;10.82;;;10.80;99.90;;;;;;6183919;23;20017;-82
2023/11/23 09:25:06;;;;;;;21.27;12.52;;;10.80;99.90;;;;;;6160002;23;20025;-81
2023/11/23 09:28:15;;;;;;;17.63;10.60;;;10.90;99.90;;;;;;6184086;23;20029;-84
2023/11/23 09:31:03;;;;;;;17.70;11.95;;;10.90;99.90;;;;;;6137792;23;20462;-81
2023/11/23 09:33:31;;;;;;;20.02;12.52;;;11.00;99.90;;;;;;6184468;23;20025;-81
2023/11/23 09:36:02;;;;;;;20.17;12.45;;;11.00;99.90;;;;;;6184453;23;20017;-82
2023/11/23 09:39:06;;;;;;;;;;;;;;;;;;;;;
2023/11/23 09:42:55;;;;;;;20.55;11.45;;;11.10;99.90;;;;;;5973029;23;20055;-90
2023/11/23 09:47:00;;;;;;;17.67;9.52;;;11.10;99.90;;;;;;5955435;24;20025;-89
2023/11/23 09:50:33;;;;;;;;;;;11.10;99.90;;;;;;5919033;24;20038;-91
2023/11/23 09:58:15;;;;;;;22.30;10.50;;;11.10;99.90;;;;;;5926035;24;20532;-89
2023/11/23 10:01:03;;;;;;;18.15;9.57;;;11.20;99.90;;;;;;5902383;24;20025;-83
2023/11/23 10:03:54;;;;;;;15.63;9.70;;;11.20;99.90;;;;;;5903438;24;20013;-88
2023/11/23 10:07:08;;;;;;;15.75;10.85;;;11.30;99.90;;;;;;5970093;23;20087;-79
2023/11/23 10:09:36;;;;;;;12.38;9.05;;;11.30;99.90;;;;;;6015865;23;20023;-79
2023/11/23 10:12:06;;;;;;;15.93;9.20;;;11.30;99.90;;;;;;6015797;23;20024;-87
2023/11/23 10:14:44;;;;;;;18.40;10.63;;;11.40;99.90;;;;;;5992645;23;20047;-86
2023/11/23 10:17:41;;;;;;;15.18;9.38;;;11.40;99.90;;;;;;6015728;23;20019;-86
2023/11/23 10:20:25;;;;;;;13.40;9.63;;;11.40;99.90;;;;;;6119466;23;20021;-86
2023/11/23 10:23:12;;;;;;;13.02;9.45;;;11.50;99.90;;;;;;6161573;23;20024;-87
2023/11/23 10:26:42;;;;;;;13.10;8.80;;;11.60;99.90;;;;;;6179361;23;20025;-87
2023/11/23 10:29:29;;;;;;;13.43;9.13;;;11.70;99.90;;;;;;6162340;23;20125;-86
2023/11/23 10:35:55;;;;;;;10.15;7.00;;;11.70;99.90;;;;;;6161861;23;20021;-85
2023/11/23 10:38:38;;;;;;;16.25;8.45;;;11.70;99.90;;;;;;6137691;23;20021;-86
2023/11/23 10:41:46;;;;;;;10.55;7.43;;;11.70;99.90;;;;;;6183778;23;20055;-85
2023/11/23 10:45:07;;;;;;;14.38;8.20;;;11.70;99.90;;;;;;6164297;23;20021;-87
2023/11/23 10:56:45;;;;;;;;;;;;;;;;;;;;;
2023/11/23 10:59:20;;;;;;;13.43;7.93;;;11.80;99.90;;;;;;6160230;23;20029;-81
2023/11/23 11:01:52;;;;;;;12.43;7.22;;;11.80;99.90;;;;;;6185029;23;20017;-81
2023/11/23 11:05:46;;;;;;;;;;;;;;;;;;;;;
2023/11/23 11:08:31;;;;;;;;;;;;;;;;;;;;;
2023/11/23 11:11:25;;;;;;;8.85;5.60;;;11.90;99.90;;;;;;6161176;23;20017;-87
2023/11/23 11:14:16;;;;;;;;;;;;;;;;;;;;;
2023/11/23 11:17:02;;;;;;;8.20;5.38;;;11.90;99.90;;;;;;6161288;23;20021;-87
2023/11/23 11:20:10;;;;;;;10.02;4.82;;;12.00;99.90;;;;;;6179686;23;20017;-85
2023/11/23 11:22:37;;;;;;;8.82;4.60;;;12.00;99.90;;;;;;6137443;23;20021;-87
2023/11/23 11:25:21;;;;;;;9.38;4.95;;;12.00;99.90;;;;;;6186566;23;20014;-89
2023/11/23 11:27:53;;;;;;;11.90;5.32;;;12.10;99.90;;;;;;6137665;23;20013;-86
2023/11/23 11:30:24;;;;;;;10.50;4.72;;;12.10;99.90;;;;;;6186814;23;20021;-87
2023/11/23 11:32:52;;;;;;;9.15;4.30;;;12.10;99.90;;;;;;6137070;23;20107;-87
2023/11/23 11:35:20;;;;;;;11.85;4.97;;;12.10;99.90;;;;;;6162422;23;20021;-88
2023/11/23 11:37:51;;;;;;;8.75;3.83;;;12.10;99.90;;;;;;6162165;23;20021;-88
2023/11/23 11:40:22;;;;;;;8.43;4.30;;;12.10;99.90;;;;;;6161609;23;20021;-88
2023/11/23 11:42:50;;;;;;;9.50;3.97;;;12.20;99.90;;;;;;6161861;23;20045;-88
2023/11/23 11:45:19;;;;;;;7.45;3.80;;;12.20;99.90;;;;;;6138717;23;20028;-88
2023/11/23 11:47:55;;;;;;;10.07;4.55;;;12.20;99.90;;;;;;6161795;23;20443;-89
2023/11/23 11:50:26;;;;;;;10.65;4.40;;;12.20;99.90;;;;;;6136770;23;20028;-89
2023/11/23 11:52:53;;;;;;;11.20;5.03;;;12.20;99.90;;;;;;6161113;23;20100;-88
2023/11/23 11:55:23;;;;;;;9.45;4.60;;;12.20;99.90;;;;;;6137731;23;20020;-89
2023/11/23 11:57:50;;;;;;;8.25;4.30;;;12.20;99.90;;;;;;6186113;23;20021;-88
2023/11/23 12:00:17;;;;;;;14.30;4.55;;;12.20;99.90;;;;;;6161454;23;20095;-89
2023/11/23 12:02:50;;;;;;;8.45;4.18;;;12.20;99.90;;;;;;6137763;23;20021;-89
2023/11/23 12:05:21;;;;;;;7.88;3.97;;;12.20;99.90;;;;;;6161328;23;20017;-89
2023/11/23 12:07:54;;;;;;;7.82;3.47;;;12.10;99.90;;;;;;6161029;23;20024;-89
2023/11/23 12:10:22;;;;;;;10.90;3.67;;;12.20;99.90;;;;;;6160619;23;20017;-84
2023/11/23 12:12:49;;;;;;;4.95;2.88;;;12.20;99.90;;;;;;6159530;23;20032;-84
2023/11/23 12:15:19;;;;;;;8.13;3.30;;;12.20;99.90;;;;;;6184448;23;20022;-84
2023/11/23 12:17:50;;;;;;;8.15;3.80;;;12.20;99.90;;;;;;6160056;23;20017;-85
2023/11/23 12:20:23;;;;;;;10.07;3.50;;;12.20;99.90;;;;;;6160070;23;20013;-84
2023/11/23 12:22:58;;;;;;;9.43;3.63;;;12.30;99.90;;;;;;6160315;23;20021;-84
2023/11/23 12:25:28;;;;;;;6.53;2.83;;;12.30;99.90;;;;;;6160775;23;20013;-83
2023/11/23 12:27:58;;;;;;;8.95;3.10;;;12.30;99.90;;;;;;6186685;23;20017;-84
2023/11/23 12:30:34;;;;;;;7.03;2.55;;;12.30;99.90;;;;;;6150017;23;20072;-83
2023/11/23 12:33:01;;;;;;;6.40;2.90;;;12.30;99.90;;;;;;6185749;23;20021;-84
2023/11/23 12:35:28;;;;;;;7.38;3.45;;;12.30;99.90;;;;;;6160527;23;20025;-84
2023/11/23 12:37:58;;;;;;;7.95;2.67;;;12.40;99.90;;;;;;6160457;23;20466;-84
2023/11/23 12:40:25;;;;;;;6.25;2.35;;;12.40;99.90;;;;;;6160463;23;20506;-85
2023/11/23 12:42:54;;;;;;;5.38;1.75;;;12.50;99.90;;;;;;6184756;23;20025;-86
2023/11/23 12:45:21;;;;;;;6.80;2.35;;;12.50;99.90;;;;;;6159786;23;20017;-86
2023/11/23 12:47:53;;;;;;;11.80;2.47;;;12.50;99.90;;;;;;6160228;23;20017;-86
2023/11/23 12:50:23;;;;;;;4.53;1.48;;;12.60;99.90;;;;;;6185021;23;20033;-88
2023/11/23 12:52:51;;;;;;;9.10;2.65;;;12.60;99.90;;;;;;6160744;23;20448;-88
2023/11/23 12:55:21;;;;;;;9.07;2.25;;;12.60;99.90;;;;;;6185099;23;20526;-88
2023/11/23 12:57:49;;;;;;;6.35;1.55;;;12.60;99.90;;;;;;6135920;23;20021;-88
2023/11/23 13:00:17;;;;;;;6.47;1.95;;;12.70;99.90;;;;;;6185159;23;20104;-84
2023/11/23 13:02:55;;;;;;;5.35;1.88;;;12.70;99.90;;;;;;6136005;23;20021;-91
2023/11/23 13:05:22;;;;;;;4.10;1.25;;;12.70;99.90;;;;;;6185233;23;20385;-89
2023/11/23 13:07:49;;;;;;;6.10;1.20;;;12.70;99.90;;;;;;6136030;23;20044;-91
2023/11/23 13:10:26;;;;;;;4.00;1.65;;;12.70;99.90;;;;;;6160480;23;20444;-93
2023/11/23 13:13:05;;;;;;;7.25;1.80;;;12.70;99.90;;;;;;6185228;23;20028;-92
2023/11/23 13:15:37;;;;;;;5.55;1.42;;;12.70;99.90;;;;;;6160401;23;20104;-89
2023/11/23 13:18:08;;;;;;;7.30;1.58;;;12.70;99.80;;;;;;6161128;23;20013;-88
2023/11/23 13:20:42;;;;;;;8.13;2.05;;;12.70;99.70;;;;;;6185200;23;20066;-90
2023/11/23 13:23:21;;;;;;;4.60;1.58;;;12.70;99.70;;;;;;6139067;23;20046;-88
2023/11/23 13:26:00;;;;;;;4.43;1.30;;;12.70;99.70;;;;;;6160333;23;20025;-84